Basin, Mississippi
Current Conditions -  °F | °C
As of 6:56 AM on Wednesday 26 Nov 2014 (Local Time) from KMOB Reporting Station
Clear Clear  
Wind Chill: 34°   Ceiling: Unl
Heat Index: 34°   Visibility: 10mi
Dew Point: 29°   Wind: 3mph
Humidity: 82%   Direction: 300°WNW
Pressure: 30.23"   Gusts: NA
Location:  30.8443°N, 88.5703°W
Report Text: KMOB 261256Z 30003KT 10SM CLR 01/M02 A3023 RMK AO2 SLP235 T00111017
Loading
Personal Weather Stations






























Interactive Weather Map New forecast layout! Learn more

10-Day Weather Forecast

Advertisements
Track Severe Weather on mobile